Time;durP1;ratioP1;P1;durP2;ratioP2;P2;SDS_P1;SDS_P2;PMS_P1;PMS_P2;Temp;Humidity;BMP_temperature;BMP_pressure;BME280_temperature;BME280_humidity;BME280_pressure;Samples;Min_cycle;Max_cycle;Signal;HPM_P1;HPM_P2
2023/08/10 00:01:22;;;;;;;2.53;1.33;;;;;;;20.79;65.89;99486.91;5031245;28;20233;-70
2023/08/10 00:03:49;;;;;;;2.00;1.70;;;;;;;20.57;66.65;99478.13;5026544;28;20197;-69
2023/08/10 00:06:17;;;;;;;1.40;1.30;;;;;;;20.59;66.92;99486.78;5030188;28;20217;-69
2023/08/10 00:08:43;;;;;;;2.30;1.27;;;;;;;20.75;66.58;99487.69;5030342;28;20201;-68
2023/08/10 00:11:10;;;;;;;1.40;1.30;;;;;;;20.62;66.95;99470.06;5033553;28;20201;-69
2023/08/10 00:13:37;;;;;;;1.43;1.37;;;;;;;20.73;66.96;99473.63;5034036;28;20340;-70
2023/08/10 00:16:04;;;;;;;2.60;1.30;;;;;;;20.85;66.59;99485.84;5033903;28;20754;-70
2023/08/10 00:18:31;;;;;;;1.33;1.27;;;;;;;20.72;67.31;99480.94;5034240;28;20225;-68
2023/08/10 00:20:57;;;;;;;2.40;1.40;;;;;;;20.52;68.04;99476.22;5034108;28;20197;-69
2023/08/10 00:23:25;;;;;;;1.37;1.33;;;;;;;20.61;68.19;99484.63;5033779;28;20255;-69
2023/08/10 00:25:52;;;;;;;3.07;1.30;;;;;;;20.75;67.63;99491.22;5034038;28;20701;-69
2023/08/10 00:28:19;;;;;;;1.93;1.83;;;;;;;20.85;67.51;99502.06;5033889;28;20204;-69
2023/08/10 00:30:46;;;;;;;2.20;1.60;;;;;;;20.82;67.77;99502.56;5034307;28;20216;-71
2023/08/10 00:33:13;;;;;;;1.40;1.37;;;;;;;20.97;67.30;99497.28;5033619;28;20229;-69
2023/08/10 00:35:40;;;;;;;2.40;1.60;;;;;;;21.10;66.82;99499.50;5034004;28;20193;-69
2023/08/10 00:38:07;;;;;;;1.80;1.70;;;;;;;21.17;67.01;99515.47;5034520;28;20193;-70
2023/08/10 00:40:35;;;;;;;1.50;1.40;;;;;;;21.29;66.48;99519.59;5034156;28;20711;-68
2023/08/10 00:43:02;;;;;;;1.60;1.50;;;;;;;21.36;66.24;99520.13;5033965;28;20735;-68
2023/08/10 00:45:29;;;;;;;1.30;1.20;;;;;;;21.36;66.02;99512.03;5034355;28;20197;-69
2023/08/10 00:47:56;;;;;;;1.17;1.17;;;;;;;21.48;65.75;99518.00;5034307;28;20193;-69
2023/08/10 00:50:24;;;;;;;1.00;1.00;;;;;;;21.53;65.70;99520.75;5034104;28;20189;-68
2023/08/10 00:52:51;;;;;;;2.83;1.10;;;;;;;21.57;65.19;99513.75;5034041;28;20240;-68
2023/08/10 00:55:17;;;;;;;1.33;1.23;;;;;;;21.59;65.23;99508.88;5034180;28;20198;-68
2023/08/10 00:57:46;;;;;;;4.13;1.57;;;;;;;21.65;64.18;99494.28;5034115;28;20194;-69
2023/08/10 01:00:14;;;;;;;1.07;1.07;;;;;;;21.73;63.54;99483.00;5034117;28;20252;-69
2023/08/10 01:02:41;;;;;;;2.70;1.20;;;;;;;21.77;63.21;99467.84;5033591;28;20648;-68
2023/08/10 01:05:10;;;;;;;2.23;1.27;;;;;;;21.25;65.04;99459.03;5033953;28;20193;-69
2023/08/10 01:07:45;;;;;;;1.70;1.00;;;;;;;21.41;64.68;99466.13;5033791;28;20190;-69
2023/08/10 01:10:20;;;;;;;1.27;1.17;;;;;;;21.53;64.27;99455.88;5033612;28;20192;-69
2023/08/10 01:12:54;;;;;;;3.67;1.50;;;;;;;21.56;64.06;99460.72;5033429;28;20636;-68
2023/08/10 01:15:32;;;;;;;1.10;1.10;;;;;;;21.58;63.84;99464.00;5033885;28;20259;-69
2023/08/10 01:18:02;;;;;;;1.37;1.10;;;;;;;21.62;64.25;99470.50;5033810;28;20191;-69
2023/08/10 01:20:30;;;;;;;2.57;1.00;;;;;;;21.38;65.26;99474.75;5033499;28;20256;-69
2023/08/10 01:23:05;;;;;;;5.30;1.13;;;;;;;21.13;66.27;99469.28;5033009;28;20316;-69
2023/08/10 01:25:35;;;;;;;1.37;1.27;;;;;;;21.13;66.75;99480.06;5033757;28;20228;-69
2023/08/10 01:28:02;;;;;;;2.13;1.20;;;;;;;21.04;67.13;99476.25;5033440;28;20255;-69
2023/08/10 01:30:29;;;;;;;1.50;1.40;;;;;;;20.83;68.47;99473.69;5033403;28;20201;-69
2023/08/10 01:32:56;;;;;;;1.70;1.30;;;;;;;20.89;68.29;99459.13;5033148;28;20225;-69
2023/08/10 01:35:22;;;;;;;1.40;1.27;;;;;;;21.06;68.10;99466.00;5033041;28;20197;-69
2023/08/10 01:37:49;;;;;;;1.67;1.33;;;;;;;21.12;68.04;99464.94;5033279;28;20193;-69
2023/08/10 01:40:16;;;;;;;1.40;1.30;;;;;;;21.16;68.12;99449.84;5033264;28;20251;-69
2023/08/10 01:42:45;;;;;;;1.30;1.20;;;;;;;20.91;69.77;99457.00;5033221;28;20207;-69
2023/08/10 01:45:12;;;;;;;3.30;1.40;;;;;;;20.94;70.32;99459.22;5032886;28;20193;-70
2023/08/10 01:47:45;;;;;;;2.20;1.40;;;;;;;20.91;70.64;99457.00;5032790;28;20198;-69
2023/08/10 01:50:15;;;;;;;1.17;1.10;;;;;;;20.89;70.90;99465.34;5033226;28;20186;-69
2023/08/10 01:52:48;;;;;;;3.43;1.40;;;;;;;20.97;70.70;99472.16;5033200;28;20221;-69
2023/08/10 01:55:15;;;;;;;1.47;1.10;;;;;;;21.13;70.51;99477.38;5033136;28;20197;-69
2023/08/10 01:57:42;;;;;;;1.67;1.17;;;;;;;21.30;69.83;99487.97;5032854;28;20205;-69
2023/08/10 02:00:12;;;;;;;1.57;1.03;;;;;;;21.45;69.20;99499.66;5032949;28;20194;-71
2023/08/10 02:02:39;;;;;;;3.07;1.20;;;;;;;21.56;68.96;99493.16;5032589;28;20585;-70
2023/08/10 02:05:06;;;;;;;1.30;1.20;;;;;;;21.68;68.68;99501.06;5032738;28;20195;-70
2023/08/10 02:07:33;;;;;;;0.97;0.93;;;;;;;21.75;68.63;99505.16;5032326;28;20259;-69
2023/08/10 02:10:00;;;;;;;3.80;1.60;;;;;;;21.80;68.50;99491.63;5032420;28;20197;-67
2023/08/10 02:12:27;;;;;;;1.10;1.10;;;;;;;21.84;68.45;99479.19;5032596;28;20560;-68
2023/08/10 02:14:58;;;;;;;1.67;1.10;;;;;;;21.83;68.49;99484.88;5032236;28;20744;-67
2023/08/10 02:17:26;;;;;;;1.50;1.40;;;;;;;21.88;68.35;99474.06;5032308;28;20764;-67
2023/08/10 02:19:53;;;;;;;3.53;1.03;;;;;;;21.93;68.15;99484.91;5032119;28;20226;-67
2023/08/10 02:22:19;;;;;;;4.63;1.57;;;;;;;21.99;68.05;99487.31;5032148;28;20193;-67
2023/08/10 02:24:46;;;;;;;1.90;1.00;;;;;;;22.01;68.05;99479.75;5032065;28;20264;-69
2023/08/10 02:27:13;;;;;;;2.03;1.10;;;;;;;21.95;68.61;99475.41;5032369;28;20244;-70
2023/08/10 02:29:40;;;;;;;1.80;1.20;;;;;;;21.98;68.65;99480.31;5031958;28;20197;-70
2023/08/10 02:32:07;;;;;;;2.73;1.40;;;;;;;21.92;68.51;99481.38;5031830;28;20196;-71
2023/08/10 02:34:35;;;;;;;1.57;1.37;;;;;;;21.83;69.28;99480.28;5032141;28;20230;-70
2023/08/10 02:37:01;;;;;;;2.77;1.10;;;;;;;21.88;69.39;99479.47;5031995;28;20723;-70
2023/08/10 02:39:28;;;;;;;2.30;1.30;;;;;;;21.94;68.91;99484.63;5031711;28;20727;-70
2023/08/10 02:41:55;;;;;;;1.83;1.20;;;;;;;21.88;69.25;99488.41;5031859;28;20716;-70
2023/08/10 02:44:21;;;;;;;1.30;1.10;;;;;;;21.88;69.86;99482.97;5031976;28;20230;-71
2023/08/10 02:46:48;;;;;;;3.47;1.53;;;;;;;21.86;69.52;99484.34;5032188;28;20201;-70
2023/08/10 02:49:15;;;;;;;3.40;1.17;;;;;;;21.85;69.76;99475.41;5031964;28;20197;-71
2023/08/10 02:51:43;;;;;;;2.93;1.50;;;;;;;21.89;69.77;99468.38;5032330;28;20279;-71
2023/08/10 02:54:09;;;;;;;2.93;2.73;;;;;;;21.92;69.63;99465.13;5031804;28;20222;-71
2023/08/10 02:56:36;;;;;;;4.13;3.83;;;;;;;21.93;69.95;99466.75;5031777;28;20197;-71
2023/08/10 02:59:04;;;;;;;5.43;1.90;;;;;;;21.97;69.94;99477.88;5031535;28;20665;-71
2023/08/10 03:01:30;;;;;;;1.90;1.80;;;;;;;21.99;69.63;99481.91;5031660;28;20197;-71
2023/08/10 03:03:57;;;;;;;1.50;1.40;;;;;;;21.98;70.21;99482.19;5031780;28;20203;-71
2023/08/10 03:06:24;;;;;;;1.23;1.13;;;;;;;21.97;70.46;99486.78;5031369;28;20339;-70
2023/08/10 03:08:52;;;;;;;1.17;1.10;;;;;;;22.00;70.33;99494.34;5031511;28;20198;-71
2023/08/10 03:11:19;;;;;;;4.60;1.37;;;;;;;21.97;70.18;99494.88;5031443;28;20199;-72
2023/08/10 03:13:46;;;;;;;1.70;1.27;;;;;;;21.89;69.89;99483.81;5031663;28;20225;-72
2023/08/10 03:16:12;;;;;;;4.93;1.53;;;;;;;21.78;70.26;99483.00;5031384;28;20201;-72
2023/08/10 03:18:39;;;;;;;2.97;1.50;;;;;;;21.77;70.39;99481.38;5031624;28;20194;-72
2023/08/10 03:21:06;;;;;;;2.23;1.63;;;;;;;21.77;70.55;99483.25;5031438;28;20201;-72
2023/08/10 03:23:32;;;;;;;4.60;1.60;;;;;;;21.79;70.59;99491.88;5031554;28;20960;-71
2023/08/10 03:26:00;;;;;;;5.33;1.70;;;;;;;21.86;70.56;99487.03;5031748;28;20228;-71
2023/08/10 03:28:27;;;;;;;9.67;1.70;;;;;;;21.91;70.50;99489.75;5031152;28;20693;-70
2023/08/10 03:30:54;;;;;;;4.13;1.70;;;;;;;21.95;70.44;99488.94;5031201;28;20684;-70
2023/08/10 03:33:20;;;;;;;3.13;1.37;;;;;;;21.98;70.18;99480.31;5031536;28;20229;-70
2023/08/10 03:35:47;;;;;;;1.57;1.30;;;;;;;21.95;70.39;99480.00;5031541;28;20189;-70
2023/08/10 03:38:14;;;;;;;5.73;2.00;;;;;;;21.89;70.78;99479.19;5031614;28;20257;-71
2023/08/10 03:40:40;;;;;;;6.33;1.97;;;;;;;21.83;71.00;99482.16;5031472;28;20251;-70
2023/08/10 03:43:09;;;;;;;3.80;1.70;;;;;;;21.84;70.68;99473.78;5031480;28;20570;-72
2023/08/10 03:45:35;;;;;;;3.90;1.77;;;;;;;21.89;70.19;99471.06;5033452;28;20664;-71
2023/08/10 03:48:02;;;;;;;2.80;1.60;;;;;;;21.87;69.30;99478.66;5035418;28;20263;-72
2023/08/10 03:50:29;;;;;;;3.43;1.40;;;;;;;21.84;68.35;99473.78;5034827;28;20197;-72
2023/08/10 03:52:56;;;;;;;3.03;1.60;;;;;;;21.84;68.55;99468.38;5035116;28;20575;-72
2023/08/10 03:55:23;;;;;;;2.40;2.20;;;;;;;21.88;69.04;99474.88;5035184;28;20189;-71
2023/08/10 03:57:49;;;;;;;3.47;1.90;;;;;;;21.95;69.87;99470.00;5035259;28;20268;-71
2023/08/10 04:00:18;;;;;;;5.77;2.03;;;;;;;21.97;69.84;99470.53;5034806;28;20260;-71
2023/08/10 04:02:45;;;;;;;5.10;1.97;;;;;;;21.99;69.63;99471.09;5035100;28;20193;-69
2023/08/10 04:05:11;;;;;;;8.93;2.63;;;;;;;22.09;69.02;99473.78;5035044;28;20285;-70
2023/08/10 04:07:39;;;;;;;7.73;2.57;;;;;;;22.20;68.88;99461.88;5034941;28;20199;-70
2023/08/10 04:10:06;;;;;;;10.80;2.67;;;;;;;22.36;68.43;99471.63;5034684;28;20288;-72
2023/08/10 04:12:33;;;;;;;8.80;2.10;;;;;;;22.42;67.41;99475.94;5034992;28;20215;-71
2023/08/10 04:15:00;;;;;;;8.83;2.70;;;;;;;22.44;66.46;99484.59;5034419;28;20227;-71
2023/08/10 04:17:28;;;;;;;9.80;2.93;;;;;;;22.51;65.46;99490.59;5034486;28;20198;-71
2023/08/10 04:19:56;;;;;;;7.07;2.50;;;;;;;22.84;64.75;99495.38;5034860;28;20249;-71
2023/08/10 04:22:22;;;;;;;4.77;2.43;;;;;;;23.22;61.58;99489.31;5034763;28;20198;-71
2023/08/10 04:24:50;;;;;;;23.63;3.30;;;;;;;23.68;59.63;99500.75;5034404;28;20230;-71
2023/08/10 04:27:18;;;;;;;17.87;2.77;;;;;;;24.34;57.05;99499.19;5034633;28;20278;-72
2023/08/10 04:29:45;;;;;;;8.30;2.37;;;;;;;25.17;54.54;99505.09;5034542;28;20200;-71
2023/08/10 04:32:12;;;;;;;11.77;2.70;;;;;;;26.03;51.07;99505.59;5034589;28;20229;-72
2023/08/10 04:34:41;;;;;;;11.17;2.70;;;;;;;26.61;48.13;99501.34;5034443;28;20639;-72
2023/08/10 04:37:08;;;;;;;15.33;2.47;;;;;;;27.30;45.84;99499.22;5034615;28;20200;-74
2023/08/10 04:39:34;;;;;;;9.90;2.90;;;;;;;27.86;43.84;99507.00;5034138;28;20259;-71
2023/08/10 04:42:01;;;;;;;6.67;1.80;;;;;;;28.42;42.48;99510.84;5034490;28;20190;-72
2023/08/10 04:44:28;;;;;;;9.20;1.90;;;;;;;28.92;41.16;99508.69;5034054;28;20209;-74
2023/08/10 04:46:54;;;;;;;5.23;1.53;;;;;;;29.18;39.92;99513.19;5034489;28;20197;-72
2023/08/10 04:49:21;;;;;;;4.97;1.60;;;;;;;29.47;39.06;99515.34;5033982;28;20193;-73
2023/08/10 04:51:49;;;;;;;5.60;1.70;;;;;;;29.57;38.88;99520.56;5034653;28;20197;-73
2023/08/10 04:54:16;;;;;;;1.30;1.20;;;;;;;29.57;39.03;99520.56;5033747;28;20244;-73
2023/08/10 04:56:42;;;;;;;3.00;1.60;;;;;;;29.66;38.41;99532.31;5034258;28;20252;-72
2023/08/10 04:59:09;;;;;;;3.77;1.43;;;;;;;29.82;38.08;99546.34;5034139;28;20251;-74
2023/08/10 05:01:36;;;;;;;3.47;1.50;;;;;;;29.79;37.90;99542.31;5033890;28;20676;-73
2023/08/10 05:04:03;;;;;;;3.90;1.57;;;;;;;29.48;38.64;99530.63;5033790;28;20685;-72
2023/08/10 05:06:30;;;;;;;7.17;1.83;;;;;;;29.74;37.96;99536.19;5034193;28;20190;-74
2023/08/10 05:08:58;;;;;;;1.60;1.50;;;;;;;30.14;38.02;99540.44;5033671;28;20197;-74
2023/08/10 05:11:25;;;;;;;11.77;1.73;;;;;;;30.49;36.27;99537.34;5033856;28;20224;-74
2023/08/10 05:13:52;;;;;;;8.90;1.80;;;;;;;30.59;36.63;99536.19;5033499;28;20221;-75
2023/08/10 05:16:18;;;;;;;5.93;1.67;;;;;;;30.94;36.13;99548.72;5033546;28;20209;-74
2023/08/10 05:18:52;;;;;;;6.40;1.73;;;;;;;31.19;35.42;99550.56;5034019;28;20262;-73
2023/08/10 05:21:19;;;;;;;2.40;1.47;;;;;;;31.29;35.21;99551.03;5033715;28;20190;-73
2023/08/10 05:23:46;;;;;;;10.53;2.00;;;;;;;30.96;35.91;99539.03;5033400;28;20202;-72
2023/08/10 05:26:14;;;;;;;4.60;1.33;;;;;;;31.00;35.76;99542.72;5032601;28;20283;-72
2023/08/10 05:28:41;;;;;;;2.87;1.50;;;;;;;30.43;36.95;99546.88;5033007;28;20288;-74
2023/08/10 05:31:08;;;;;;;9.00;1.47;;;;;;;29.91;38.08;99542.50;5032860;28;20255;-72
2023/08/10 05:33:35;;;;;;;1.77;1.40;;;;;;;29.41;38.99;99526.75;5032508;28;20193;-73
2023/08/10 05:36:02;;;;;;;3.53;1.50;;;;;;;28.93;40.40;99529.44;5032879;28;20198;-71
2023/08/10 05:38:29;;;;;;;3.97;1.40;;;;;;;28.70;41.67;99523.22;5032865;28;20197;-72
2023/08/10 05:40:56;;;;;;;4.30;1.70;;;;;;;29.21;40.33;99528.16;5032595;28;20280;-72
2023/08/10 05:43:24;;;;;;;1.30;1.10;;;;;;;29.58;39.02;99533.09;5031612;28;20204;-75
2023/08/10 05:45:51;;;;;;;1.40;1.30;;;;;;;29.31;40.09;99538.78;5031820;28;20771;-72
2023/08/10 05:48:18;;;;;;;1.60;1.47;;;;;;;29.01;40.17;99536.91;5032541;28;20201;-71
2023/08/10 05:50:45;;;;;;;1.40;1.27;;;;;;;27.73;43.35;99535.13;5032322;28;20255;-71
2023/08/10 05:53:12;;;;;;;2.20;1.50;;;;;;;26.90;46.14;99548.28;5032729;28;20276;-72
2023/08/10 05:55:39;;;;;;;3.47;1.70;;;;;;;25.81;49.17;99540.75;5031766;28;20217;-73
2023/08/10 05:58:05;;;;;;;4.17;2.07;;;;;;;25.56;50.47;99538.38;5032271;28;20247;-73
2023/08/10 06:00:36;;;;;;;5.97;1.53;;;;;;;25.25;51.33;99547.97;5031986;28;20189;-73
2023/08/10 06:03:03;;;;;;;2.30;1.60;;;;;;;25.21;51.98;99541.50;5032601;28;20185;-70
2023/08/10 06:05:31;;;;;;;5.43;1.80;;;;;;;25.39;50.98;99538.06;5031960;28;20201;-72
2023/08/10 06:07:58;;;;;;;9.53;1.90;;;;;;;25.22;51.62;99546.66;5031796;28;20281;-71
2023/08/10 06:10:26;;;;;;;2.47;1.80;;;;;;;25.30;52.44;99539.78;5031671;28;20247;-71
2023/08/10 06:12:53;;;;;;;5.97;2.03;;;;;;;25.23;52.32;99552.91;5031828;28;20669;-72
2023/08/10 06:15:20;;;;;;;8.27;2.13;;;;;;;25.33;52.09;99555.53;5031689;28;20282;-71
2023/08/10 06:17:48;;;;;;;10.63;2.30;;;;;;;25.17;52.57;99556.75;5031823;28;20668;-76
2023/08/10 06:20:17;;;;;;;4.70;1.57;;;;;;;25.31;52.74;99557.75;5032074;28;20197;-77
2023/08/10 06:22:44;;;;;;;18.83;2.90;;;;;;;25.54;51.77;99563.16;5031352;28;20645;-74
2023/08/10 06:25:12;;;;;;;7.13;1.40;;;;;;;25.61;51.73;99570.97;5031578;28;20237;-74
2023/08/10 06:27:39;;;;;;;3.43;1.93;;;;;;;25.69;51.12;99576.56;5031647;28;20625;-74
2023/08/10 06:30:08;;;;;;;24.77;3.70;;;;;;;25.55;51.43;99563.97;5031640;28;20802;-74
2023/08/10 06:32:35;;;;;;;7.37;2.03;;;;;;;25.67;51.67;99567.06;5031873;28;20201;-76
2023/08/10 06:35:04;;;;;;;10.93;2.77;;;;;;;26.05;50.29;99579.63;5031502;28;20225;-76
2023/08/10 06:37:32;;;;;;;5.27;2.60;;;;;;;26.57;48.89;99560.25;5031691;28;20284;-74
2023/08/10 06:39:59;;;;;;;3.60;2.00;;;;;;;26.91;47.55;99561.59;5031665;28;20643;-72
2023/08/10 06:42:26;;;;;;;3.23;2.00;;;;;;;27.34;46.24;99570.34;5031532;28;20197;-72
2023/08/10 06:44:52;;;;;;;3.70;2.40;;;;;;;27.55;48.15;99563.34;5030709;28;20201;-74
2023/08/10 06:47:19;;;;;;;5.33;2.10;;;;;;;27.96;45.50;99567.66;5030940;28;20197;-73
2023/08/10 06:49:46;;;;;;;18.43;3.47;;;;;;;28.28;44.13;99572.09;5031677;28;20197;-80
2023/08/10 06:52:14;;;;;;;2.30;1.70;;;;;;;28.29;44.04;99571.81;5031216;28;20205;-79
2023/08/10 06:54:41;;;;;;;5.77;1.60;;;;;;;28.44;44.05;99574.22;5030862;28;20572;-75
2023/08/10 06:57:07;;;;;;;4.60;1.80;;;;;;;28.35;43.98;99569.75;5031480;28;20251;-76
2023/08/10 06:59:34;;;;;;;5.10;2.17;;;;;;;28.49;43.73;99581.47;5030968;28;20213;-76
2023/08/10 07:02:01;;;;;;;4.40;1.83;;;;;;;28.27;44.03;99584.97;5030965;28;20617;-75
2023/08/10 07:04:28;;;;;;;1.83;1.73;;;;;;;27.35;46.53;99577.41;5030801;28;20228;-76
2023/08/10 07:06:55;;;;;;;4.93;1.80;;;;;;;27.09;47.43;99573.53;5031327;28;20197;-74
2023/08/10 07:09:23;;;;;;;2.73;1.77;;;;;;;27.34;46.73;99570.34;5031007;28;20229;-72
2023/08/10 07:11:50;;;;;;;6.47;2.20;;;;;;;27.63;46.51;99573.56;5031071;28;20236;-72
2023/08/10 07:14:17;;;;;;;2.43;2.03;;;;;;;27.22;46.93;99573.59;5030383;28;20251;-69
2023/08/10 07:16:43;;;;;;;1.63;1.53;;;;;;;27.19;46.66;99576.09;5030877;28;20597;-69
2023/08/10 07:19:10;;;;;;;9.40;1.97;;;;;;;26.91;47.26;99582.59;5030229;28;20289;-68
2023/08/10 07:21:37;;;;;;;4.87;1.87;;;;;;;27.45;47.90;99585.41;5031013;28;20201;-69
2023/08/10 07:24:05;;;;;;;1.50;1.40;;;;;;;27.52;45.77;99594.78;5029894;28;20201;-69
2023/08/10 07:26:33;;;;;;;2.43;1.60;;;;;;;27.31;46.54;99588.13;5027993;28;20835;-69
2023/08/10 07:29:00;;;;;;;6.10;1.73;;;;;;;27.27;47.07;99597.25;5030316;28;20232;-67
2023/08/10 07:31:31;;;;;;;4.93;2.10;;;;;;;26.44;50.04;99593.72;5030182;28;20201;-70
2023/08/10 07:33:58;;;;;;;8.97;1.97;;;;;;;25.91;52.48;99595.03;5030346;28;20562;-67
2023/08/10 07:36:26;;;;;;;12.77;2.10;;;;;;;25.95;52.01;99601.53;5030065;28;20304;-65
2023/08/10 07:38:55;;;;;;;14.70;1.87;;;;;;;25.63;53.24;99587.81;5030646;28;20288;-67
2023/08/10 07:41:21;;;;;;;9.77;1.73;;;;;;;25.32;53.67;99603.69;5030186;28;20214;-67
2023/08/10 07:43:49;;;;;;;9.57;1.73;;;;;;;24.89;54.70;99594.59;5030207;28;20190;-65
2023/08/10 07:46:16;;;;;;;8.70;1.00;;;;;;;25.11;54.33;99596.78;5030362;28;20198;-67
2023/08/10 07:48:43;;;;;;;21.00;2.67;;;;;;;25.27;52.99;99594.75;5030123;28;20255;-66
2023/08/10 07:51:10;;;;;;;8.17;1.67;;;;;;;24.95;53.78;99612.44;5030257;28;20567;-66
2023/08/10 07:53:36;;;;;;;5.93;1.37;;;;;;;24.54;55.98;99608.44;5029719;28;20683;-66
2023/08/10 07:56:03;;;;;;;3.37;1.57;;;;;;;24.48;56.35;99604.16;5030484;28;20213;-66
2023/08/10 07:58:30;;;;;;;4.00;1.60;;;;;;;24.15;56.86;99610.38;5030716;28;20262;-67
2023/08/10 08:00:58;;;;;;;1.53;1.40;;;;;;;24.12;57.08;99619.06;5030531;28;20205;-66
2023/08/10 08:03:25;;;;;;;3.43;1.30;;;;;;;24.46;55.29;99622.63;5028660;28;20201;-67
2023/08/10 08:05:52;;;;;;;4.93;1.43;;;;;;;24.28;56.07;99620.59;5030499;28;20205;-67
2023/08/10 08:08:18;;;;;;;2.90;1.33;;;;;;;24.57;55.63;99624.19;5029894;28;20200;-69
2023/08/10 08:10:45;;;;;;;2.13;1.30;;;;;;;24.65;55.75;99631.75;5030225;28;20543;-66
2023/08/10 08:13:12;;;;;;;3.93;1.87;;;;;;;24.00;58.42;99626.72;5030268;28;20278;-67
2023/08/10 08:15:39;;;;;;;2.67;1.67;;;;;;;23.80;59.39;99626.81;5030244;28;20224;-67
2023/08/10 08:18:53;;;;;;;5.00;2.00;;;;;;;23.65;60.47;99626.84;5030210;28;20191;-66
2023/08/10 08:21:23;;;;;;;11.90;1.87;;;;;;;23.88;59.93;99630.81;4987067;28;20274;-71
2023/08/10 08:23:50;;;;;;;14.83;2.60;;;;;;;24.28;59.28;99636.06;5026817;28;20204;-74
2023/08/10 08:26:19;;;;;;;7.20;2.03;;;;;;;23.95;60.75;99632.19;5030672;28;20244;-71
2023/08/10 08:28:47;;;;;;;1.97;1.63;;;;;;;23.86;61.03;99633.84;5030449;28;20196;-70
2023/08/10 08:31:14;;;;;;;11.27;2.40;;;;;;;24.05;60.42;99648.41;5031759;28;20203;-70
2023/08/10 08:33:41;;;;;;;7.00;1.67;;;;;;;24.00;60.15;99645.72;5032677;28;20748;-69
2023/08/10 08:36:08;;;;;;;8.93;2.03;;;;;;;23.80;60.54;99645.78;5033635;28;20220;-67
2023/08/10 08:38:37;;;;;;;5.77;1.33;;;;;;;23.69;62.32;99646.13;5033571;28;20201;-68
2023/08/10 08:41:05;;;;;;;4.67;1.57;;;;;;;23.46;63.95;99644.84;5033727;28;20208;-68
2023/08/10 08:43:33;;;;;;;5.00;1.53;;;;;;;23.22;65.26;99643.81;5033181;28;20687;-66
2023/08/10 08:46:01;;;;;;;2.30;2.00;;;;;;;22.87;67.03;99640.31;5032964;28;20748;-69
2023/08/10 08:48:28;;;;;;;3.17;1.70;;;;;;;23.00;66.61;99634.34;5030667;28;20200;-69
2023/08/10 08:50:56;;;;;;;1.90;1.70;;;;;;;22.82;67.08;99637.63;5032952;28;20670;-69
2023/08/10 08:53:23;;;;;;;4.33;2.53;;;;;;;22.90;66.77;99640.56;5032746;28;20258;-70
2023/08/10 08:55:51;;;;;;;2.30;1.97;;;;;;;22.66;68.25;99633.28;5032646;28;20505;-69
2023/08/10 08:58:19;;;;;;;3.07;1.80;;;;;;;22.54;68.91;99630.03;5032653;28;20653;-72
2023/08/10 09:00:48;;;;;;;3.47;1.90;;;;;;;22.56;69.08;99633.25;5025190;28;20281;-70
2023/08/10 09:03:16;;;;;;;8.30;2.00;;;;;;;22.66;68.76;99617.03;5030628;28;20224;-69
2023/08/10 09:05:43;;;;;;;6.40;1.90;;;;;;;22.68;69.44;99615.69;5033049;28;20248;-68
2023/08/10 09:08:10;;;;;;;7.90;2.10;;;;;;;23.09;67.68;99622.66;5033206;28;20289;-69
2023/08/10 09:10:37;;;;;;;7.47;1.80;;;;;;;23.29;66.60;99630.78;5032794;28;20194;-69
2023/08/10 09:13:13;;;;;;;2.57;1.90;;;;;;;23.00;67.28;99618.91;5032655;28;20206;-68
2023/08/10 09:15:40;;;;;;;4.80;2.40;;;;;;;22.99;68.08;99619.16;5033150;28;20276;-68
2023/08/10 09:18:07;;;;;;;6.83;1.93;;;;;;;22.76;68.42;99607.00;5033132;28;20268;-67
2023/08/10 09:20:34;;;;;;;1.90;1.77;;;;;;;22.78;68.62;99612.94;5033006;28;20198;-69
2023/08/10 09:23:01;;;;;;;2.07;1.83;;;;;;;22.92;67.84;99611.31;5032531;28;20276;-70
2023/08/10 09:25:36;;;;;;;4.73;1.80;;;;;;;23.13;67.93;99612.09;5032932;28;20300;-69
2023/08/10 09:28:08;;;;;;;1.83;1.40;;;;;;;23.09;66.11;99611.84;5033030;28;20663;-68
2023/08/10 09:30:36;;;;;;;7.57;1.67;;;;;;;23.00;66.49;99608.06;5032702;28;20678;-68
2023/08/10 09:33:03;;;;;;;1.67;1.30;;;;;;;23.19;65.11;99611.78;5032421;28;20194;-68
2023/08/10 09:35:31;;;;;;;5.17;1.53;;;;;;;23.49;65.05;99610.94;5030011;28;20230;-68
2023/08/10 09:38:02;;;;;;;2.20;1.23;;;;;;;23.38;63.89;99615.59;5031239;28;20188;-67
2023/08/10 09:40:29;;;;;;;1.63;1.20;;;;;;;23.17;64.60;99597.72;5032259;28;20237;-68
2023/08/10 09:42:56;;;;;;;4.90;1.13;;;;;;;23.19;65.24;99606.38;5029288;28;20556;-67
2023/08/10 09:45:23;;;;;;;3.30;1.77;;;;;;;23.36;65.11;99606.91;5032300;28;20742;-77
2023/08/10 09:47:51;;;;;;;1.20;1.20;;;;;;;23.44;65.72;99598.19;5031895;28;20241;-70
2023/08/10 09:50:18;;;;;;;1.80;1.70;;;;;;;23.93;65.07;99590.94;5031965;28;20262;-70
2023/08/10 09:52:46;;;;;;;1.83;1.73;;;;;;;23.55;64.34;99593.53;5032252;28;20223;-70
2023/08/10 09:55:13;;;;;;;2.00;1.80;;;;;;;23.45;65.31;99589.00;5032061;28;20254;-70
2023/08/10 09:57:40;;;;;;;4.93;1.80;;;;;;;23.46;66.22;99584.38;5032404;28;20578;-69
2023/08/10 10:00:14;;;;;;;2.30;2.10;;;;;;;23.34;66.02;99589.28;5031930;28;20195;-70
2023/08/10 10:02:41;;;;;;;3.50;2.20;;;;;;;23.09;65.87;99582.03;5031411;28;20689;-68
2023/08/10 10:05:09;;;;;;;10.37;2.77;;;;;;;22.62;67.42;99551.75;5031705;28;20248;-68
2023/08/10 10:07:36;;;;;;;4.63;2.53;;;;;;;22.67;67.93;99589.66;5032209;28;20198;-70
2023/08/10 10:10:04;;;;;;;7.20;2.20;;;;;;;22.59;68.72;99582.09;5032320;28;20276;-71
2023/08/10 10:12:36;;;;;;;4.63;1.73;;;;;;;22.52;68.06;99583.44;5031295;28;20209;-71
2023/08/10 10:15:04;;;;;;;3.93;2.00;;;;;;;22.47;69.15;99586.16;5031960;28;20186;-70
2023/08/10 10:17:32;;;;;;;1.93;1.83;;;;;;;22.66;68.39;99579.13;5031886;28;20216;-70
2023/08/10 10:19:59;;;;;;;6.17;2.20;;;;;;;22.82;68.83;99578.03;5032150;28;20229;-69
2023/08/10 10:22:27;;;;;;;2.83;1.80;;;;;;;23.55;67.22;99578.09;5031269;28;20255;-71
2023/08/10 10:24:59;;;;;;;3.77;1.67;;;;;;;23.97;65.22;99583.88;5029695;28;20710;-71
2023/08/10 10:27:39;;;;;;;2.03;1.93;;;;;;;24.21;63.06;99583.97;5032079;28;20191;-74
2023/08/10 10:30:14;;;;;;;3.10;1.80;;;;;;;24.52;62.23;99583.47;5032144;28;20183;-71
2023/08/10 10:32:45;;;;;;;2.30;2.13;;;;;;;24.99;60.27;99572.72;5031300;28;20200;-69
2023/08/10 10:35:15;;;;;;;2.57;2.43;;;;;;;25.27;58.72;99578.44;5030550;28;20212;-68
2023/08/10 10:37:43;;;;;;;2.00;1.90;;;;;;;25.26;58.96;99574.88;5030510;28;20201;-70
2023/08/10 10:40:15;;;;;;;3.10;1.87;;;;;;;24.51;60.88;99570.97;5030923;28;20224;-69
2023/08/10 10:43:06;;;;;;;4.57;1.67;;;;;;;23.96;63.15;99573.28;5030660;28;20285;-69
2023/08/10 10:45:35;;;;;;;2.27;1.93;;;;;;;23.32;65.64;99562.44;5028817;28;20197;-69
2023/08/10 10:48:02;;;;;;;13.90;2.87;;;;;;;23.00;67.56;99553.03;5030636;28;20199;-69
2023/08/10 10:50:30;;;;;;;3.20;2.10;;;;;;;22.63;68.58;99518.19;5025789;28;20621;-69
2023/08/10 10:52:59;;;;;;;2.23;1.80;;;;;;;22.85;69.60;99564.72;5031136;28;20197;-68
2023/08/10 10:55:28;;;;;;;1.97;1.50;;;;;;;22.87;69.86;99565.25;5030245;28;20245;-69
2023/08/10 10:57:55;;;;;;;2.23;2.03;;;;;;;23.36;68.56;99571.66;5031359;28;20195;-69
2023/08/10 11:00:24;;;;;;;4.27;1.97;;;;;;;23.24;69.52;99568.44;5030648;28;20257;-69
2023/08/10 11:02:51;;;;;;;3.33;2.00;;;;;;;22.86;72.80;99571.75;5028127;28;20730;-69
2023/08/10 11:05:19;;;;;;;4.07;3.17;;;;;;;23.23;70.12;99579.59;5030351;28;20194;-70
2023/08/10 11:07:47;;;;;;;3.53;2.53;;;;;;;22.94;71.37;99573.91;5030158;28;20189;-69
2023/08/10 11:10:16;;;;;;;2.27;1.83;;;;;;;23.39;69.81;99573.00;5030024;28;20626;-68
2023/08/10 11:12:45;;;;;;;3.30;3.10;;;;;;;23.73;68.60;99561.16;5029099;28;20200;-68
2023/08/10 11:15:13;;;;;;;1.97;1.83;;;;;;;23.74;69.03;99586.41;5029599;28;20200;-67
2023/08/10 11:17:41;;;;;;;1.80;1.70;;;;;;;23.53;69.79;99580.25;5026622;28;20223;-68
2023/08/10 11:20:15;;;;;;;2.93;2.20;;;;;;;24.23;66.05;99585.34;5029553;28;20222;-68
2023/08/10 11:22:42;;;;;;;2.23;2.03;;;;;;;24.73;64.28;99595.81;5030724;28;20191;-67
2023/08/10 11:25:11;;;;;;;2.33;1.97;;;;;;;24.95;63.93;99595.34;5030788;28;20224;-67
2023/08/10 11:27:42;;;;;;;3.17;2.00;;;;;;;25.23;63.97;99594.50;5031490;28;20287;-67
2023/08/10 11:30:11;;;;;;;2.90;2.10;;;;;;;25.61;63.68;99587.28;5030054;28;20254;-68
2023/08/10 11:32:41;;;;;;;3.57;1.70;;;;;;;25.86;61.90;99586.94;5030545;28;20209;-66
2023/08/10 11:35:09;;;;;;;2.53;2.10;;;;;;;25.79;61.44;99592.75;5030196;28;20276;-66